createdAt,value
2023-03-31T00:12:25.846Z,20.24
2023-03-31T00:42:25.460Z,26.46
2023-03-31T01:12:25.618Z,18.67
2023-03-31T01:42:26.064Z,19.56
2023-03-31T02:12:25.710Z,17.07
2023-03-31T02:27:25.721Z,18.01
2023-03-31T02:57:26.152Z,16.32
2023-03-31T03:27:25.313Z,18.79
2023-03-31T03:57:25.463Z,26.91
2023-03-31T04:12:25.832Z,33.86
2023-03-31T05:42:25.460Z,40.1
2023-03-31T05:57:25.697Z,22.7
2023-03-31T06:12:25.637Z,25.8
2023-03-31T06:27:25.633Z,18.45
2023-03-31T06:42:25.565Z,18.51
2023-03-31T06:57:25.975Z,14.34
2023-03-31T07:12:25.644Z,15.43
2023-03-31T07:27:26.415Z,18.89
2023-03-31T07:42:26.041Z,51.45
2023-03-31T07:57:25.790Z,22.56
2023-03-31T08:12:26.049Z,35.61
2023-03-31T08:27:25.756Z,39.4
2023-03-31T08:42:25.861Z,24.28
2023-03-31T08:57:25.863Z,13.09
2023-03-31T09:12:25.565Z,10.93
2023-03-31T09:42:25.638Z,22.47
2023-03-31T09:57:25.801Z,20
2023-03-31T10:12:25.915Z,5.7
2023-03-31T10:27:25.673Z,9.85
2023-03-31T10:42:25.874Z,3.52
2023-03-31T11:12:25.760Z,5.98
2023-03-31T11:27:25.396Z,5.65
2023-03-31T11:57:25.776Z,8.65
2023-03-31T12:12:25.330Z,2.53
2023-03-31T12:27:25.429Z,4.83
2023-03-31T12:42:26.043Z,4.63
2023-03-31T12:57:25.560Z,4.26
2023-03-31T13:12:25.927Z,5.53
2023-03-31T13:27:25.416Z,4.43
2023-03-31T13:42:25.850Z,28.06
2023-03-31T13:57:25.840Z,9.12
2023-03-31T14:12:25.865Z,6.03
2023-03-31T14:27:25.168Z,3.11
2023-03-31T14:42:25.809Z,2.4
2023-03-31T14:57:25.217Z,1.13
2023-03-31T15:12:25.582Z,1.69
2023-03-31T15:42:25.416Z,1.45
2023-03-31T15:57:26.041Z,0.14
2023-03-31T16:12:25.588Z,0.91
2023-03-31T16:27:25.725Z,5.14
2023-03-31T16:42:25.496Z,8.78
2023-03-31T16:57:25.286Z,18.47
2023-03-31T17:12:25.633Z,7.25
2023-03-31T17:27:30.775Z,4.19
2023-03-31T17:57:26.417Z,0.14
2023-03-31T18:12:26.073Z,0.03
2023-03-31T18:27:25.955Z,0.12
2023-03-31T18:42:26.052Z,0.02
2023-03-31T18:57:25.889Z,6.21
2023-03-31T19:12:31.287Z,2.74
2023-03-31T19:27:25.342Z,8.42
2023-03-31T19:42:25.299Z,2.06
2023-03-31T20:27:26.130Z,18.42
2023-03-31T20:57:25.936Z,0.26
2023-03-31T21:12:25.788Z,0.05
2023-03-31T21:27:25.888Z,0
2023-03-31T22:12:25.752Z,0.07
2023-03-31T22:27:25.751Z,0
2023-03-31T22:42:25.454Z,0.35
2023-03-31T22:57:25.305Z,0
2023-03-31T23:12:26.070Z,0
2023-03-31T23:27:25.952Z,0
2023-03-31T23:57:25.756Z,0.09
